ジャカルタ の空港の天気 - METARとTAF

スカルノハッタ国際空港 ( WIII / CGK ) - インドネシア バンテン州、Cengkareng ( ジャカルタ近郊)
飛行場実況気象(Metar)
観測時間09/25 10:30 WIB (09/25 03:30 UTC)
風向・風速北 3m/s
視程8000m
天気現象
全天の4割程度の雲 雲底高度 610m
気温32℃
湿度52%
気圧1012hPa
METARWIII 250330Z VRB05KT 8000 SCT020 32/21 Q1012 NOSIG
過去の天気等 Google飛行場航空写真 Wunderground天気予報

過去48時間のMETAR

飛行場予報(TAF)
発表時間: 9/25 06:00 WIB (9/24 23:00 UTC)
予報対象時間: 25日7時 WIB ~ 26日13時 WIB
風向・風速不定 1m/s
視程8000m
全天の4割程度の雲 雲底高度 610m
25日9時 WIB ~ 25日11時 WIB に徐々に
風向・風速北東 6m/s
TAF WIII 242300Z 2500/2606 VRB02KT 8000 SCT020
BECMG 2502/2504 05012KT